sensor_id;sensor_type;location;lat;lon;timestamp;temperature;humidity
61412;DHT22;47278;49.732;7.690;2023-06-14T00:01:52;11.90;99.90
61412;DHT22;47278;49.732;7.690;2023-06-14T00:04:18;12.00;99.90
61412;DHT22;47278;49.732;7.690;2023-06-14T00:06:46;11.90;99.90
61412;DHT22;47278;49.732;7.690;2023-06-14T00:09:13;11.90;99.90
61412;DHT22;47278;49.732;7.690;2023-06-14T00:11:40;11.80;99.90
61412;DHT22;47278;49.732;7.690;2023-06-14T00:14:07;11.60;99.90
61412;DHT22;47278;49.732;7.690;2023-06-14T00:16:33;11.60;99.90
61412;DHT22;47278;49.732;7.690;2023-06-14T00:19:01;11.70;99.90
61412;DHT22;47278;49.732;7.690;2023-06-14T00:21:31;11.70;99.90
61412;DHT22;47278;49.732;7.690;2023-06-14T00:24:01;11.70;99.90
61412;DHT22;47278;49.732;7.690;2023-06-14T00:26:27;11.70;99.90
61412;DHT22;47278;49.732;7.690;2023-06-14T00:28:53;11.60;99.90
61412;DHT22;47278;49.732;7.690;2023-06-14T00:31:20;11.50;99.90
61412;DHT22;47278;49.732;7.690;2023-06-14T00:33:46;11.30;99.90
61412;DHT22;47278;49.732;7.690;2023-06-14T00:36:12;11.20;99.90
61412;DHT22;47278;49.732;7.690;2023-06-14T00:38:38;11.30;99.90
61412;DHT22;47278;49.732;7.690;2023-06-14T00:41:04;11.30;99.90
61412;DHT22;47278;49.732;7.690;2023-06-14T00:43:30;11.30;99.90
61412;DHT22;47278;49.732;7.690;2023-06-14T00:45:56;11.40;99.90
61412;DHT22;47278;49.732;7.690;2023-06-14T00:48:23;11.30;99.90
61412;DHT22;47278;49.732;7.690;2023-06-14T00:50:50;11.20;99.90
61412;DHT22;47278;49.732;7.690;2023-06-14T00:53:18;11.00;99.90
61412;DHT22;47278;49.732;7.690;2023-06-14T00:55:49;10.90;99.90
61412;DHT22;47278;49.732;7.690;2023-06-14T00:58:15;11.00;99.90
61412;DHT22;47278;49.732;7.690;2023-06-14T01:00:42;11.00;99.90
61412;DHT22;47278;49.732;7.690;2023-06-14T01:03:08;11.00;99.90
61412;DHT22;47278;49.732;7.690;2023-06-14T01:05:38;10.80;99.90
61412;DHT22;47278;49.732;7.690;2023-06-14T01:08:50;10.80;99.90
61412;DHT22;47278;49.732;7.690;2023-06-14T01:11:26;10.90;99.90
61412;DHT22;47278;49.732;7.690;2023-06-14T01:13:55;10.90;99.90
61412;DHT22;47278;49.732;7.690;2023-06-14T01:16:22;10.80;99.90
61412;DHT22;47278;49.732;7.690;2023-06-14T01:18:48;10.80;99.90
61412;DHT22;47278;49.732;7.690;2023-06-14T01:21:23;10.70;99.90
61412;DHT22;47278;49.732;7.690;2023-06-14T01:23:50;10.80;99.90
61412;DHT22;47278;49.732;7.690;2023-06-14T01:26:20;10.70;99.90
61412;DHT22;47278;49.732;7.690;2023-06-14T01:28:47;10.60;99.90
61412;DHT22;47278;49.732;7.690;2023-06-14T01:31:20;10.50;99.90
61412;DHT22;47278;49.732;7.690;2023-06-14T01:33:49;10.40;99.90
61412;DHT22;47278;49.732;7.690;2023-06-14T01:36:18;10.50;99.90
61412;DHT22;47278;49.732;7.690;2023-06-14T01:38:46;10.60;99.90
61412;DHT22;47278;49.732;7.690;2023-06-14T01:41:14;10.60;99.90
61412;DHT22;47278;49.732;7.690;2023-06-14T01:43:41;10.50;99.90
61412;DHT22;47278;49.732;7.690;2023-06-14T01:46:08;10.50;99.90
61412;DHT22;47278;49.732;7.690;2023-06-14T01:48:35;10.40;99.90
61412;DHT22;47278;49.732;7.690;2023-06-14T01:51:01;10.40;99.90
61412;DHT22;47278;49.732;7.690;2023-06-14T01:53:28;10.30;99.90
61412;DHT22;47278;49.732;7.690;2023-06-14T01:55:54;10.30;99.90
61412;DHT22;47278;49.732;7.690;2023-06-14T01:58:21;10.40;99.90
61412;DHT22;47278;49.732;7.690;2023-06-14T02:00:46;10.40;99.90
61412;DHT22;47278;49.732;7.690;2023-06-14T02:03:13;10.30;99.90
61412;DHT22;47278;49.732;7.690;2023-06-14T02:05:41;10.20;99.90
61412;DHT22;47278;49.732;7.690;2023-06-14T02:08:07;10.20;99.90
61412;DHT22;47278;49.732;7.690;2023-06-14T02:10:36;10.20;99.90
61412;DHT22;47278;49.732;7.690;2023-06-14T02:13:02;12.00;99.90
61412;DHT22;47278;49.732;7.690;2023-06-14T02:15:28;10.10;99.90
61412;DHT22;47278;49.732;7.690;2023-06-14T02:18:00;10.10;99.90
61412;DHT22;47278;49.732;7.690;2023-06-14T02:20:27;10.10;99.90
61412;DHT22;47278;49.732;7.690;2023-06-14T02:22:53;10.20;99.90
61412;DHT22;47278;49.732;7.690;2023-06-14T02:25:20;10.10;99.90
61412;DHT22;47278;49.732;7.690;2023-06-14T02:27:45;10.00;99.90
61412;DHT22;47278;49.732;7.690;2023-06-14T02:30:12;10.00;99.90
61412;DHT22;47278;49.732;7.690;2023-06-14T02:32:38;10.00;99.90
61412;DHT22;47278;49.732;7.690;2023-06-14T02:35:06;9.90;99.90
61412;DHT22;47278;49.732;7.690;2023-06-14T02:37:32;9.90;99.90
61412;DHT22;47278;49.732;7.690;2023-06-14T02:39:59;9.90;99.90
61412;DHT22;47278;49.732;7.690;2023-06-14T02:42:25;9.90;99.90
61412;DHT22;47278;49.732;7.690;2023-06-14T02:44:51;9.80;99.90
61412;DHT22;47278;49.732;7.690;2023-06-14T02:47:18;9.80;99.90
61412;DHT22;47278;49.732;7.690;2023-06-14T02:49:44;9.90;99.90
61412;DHT22;47278;49.732;7.690;2023-06-14T02:52:12;9.80;99.90
61412;DHT22;47278;49.732;7.690;2023-06-14T02:54:38;9.80;99.90
61412;DHT22;47278;49.732;7.690;2023-06-14T02:57:04;9.80;99.90
61412;DHT22;47278;49.732;7.690;2023-06-14T02:59:33;9.70;99.90
61412;DHT22;47278;49.732;7.690;2023-06-14T03:01:59;9.70;99.90
61412;DHT22;47278;49.732;7.690;2023-06-14T03:04:25;9.60;99.90
61412;DHT22;47278;49.732;7.690;2023-06-14T03:06:52;9.60;99.90
61412;DHT22;47278;49.732;7.690;2023-06-14T03:09:19;9.60;99.90
61412;DHT22;47278;49.732;7.690;2023-06-14T03:11:46;9.50;99.90
61412;DHT22;47278;49.732;7.690;2023-06-14T03:14:12;9.60;99.90
61412;DHT22;47278;49.732;7.690;2023-06-14T03:16:39;9.60;99.90
61412;DHT22;47278;49.732;7.690;2023-06-14T03:19:07;9.50;99.90
61412;DHT22;47278;49.732;7.690;2023-06-14T03:21:33;9.50;99.90
61412;DHT22;47278;49.732;7.690;2023-06-14T03:24:00;9.50;99.90
61412;DHT22;47278;49.732;7.690;2023-06-14T03:26:28;9.50;99.90
61412;DHT22;47278;49.732;7.690;2023-06-14T03:28:56;9.40;99.90
61412;DHT22;47278;49.732;7.690;2023-06-14T03:31:22;9.30;99.90
61412;DHT22;47278;49.732;7.690;2023-06-14T03:33:49;9.30;99.90
61412;DHT22;47278;49.732;7.690;2023-06-14T03:36:15;9.30;99.90
61412;DHT22;47278;49.732;7.690;2023-06-14T03:38:41;9.40;99.90
61412;DHT22;47278;49.732;7.690;2023-06-14T03:41:07;9.40;99.90
61412;DHT22;47278;49.732;7.690;2023-06-14T03:43:35;9.40;99.90
61412;DHT22;47278;49.732;7.690;2023-06-14T03:46:01;9.40;99.90
61412;DHT22;47278;49.732;7.690;2023-06-14T03:48:27;9.40;99.90
61412;DHT22;47278;49.732;7.690;2023-06-14T03:50:53;9.40;99.90
61412;DHT22;47278;49.732;7.690;2023-06-14T03:53:20;9.50;99.90
61412;DHT22;47278;49.732;7.690;2023-06-14T03:55:49;9.50;99.90
61412;DHT22;47278;49.732;7.690;2023-06-14T03:58:15;9.50;99.90
61412;DHT22;47278;49.732;7.690;2023-06-14T04:00:41;9.40;99.90
61412;DHT22;47278;49.732;7.690;2023-06-14T04:03:08;9.40;99.90
61412;DHT22;47278;49.732;7.690;2023-06-14T04:05:34;9.50;99.90
61412;DHT22;47278;49.732;7.690;2023-06-14T04:08:01;9.60;99.90
61412;DHT22;47278;49.732;7.690;2023-06-14T04:10:27;9.50;99.90
61412;DHT22;47278;49.732;7.690;2023-06-14T04:12:53;9.50;99.90
61412;DHT22;47278;49.732;7.690;2023-06-14T04:15:19;9.50;99.90
61412;DHT22;47278;49.732;7.690;2023-06-14T04:17:45;9.50;99.90
61412;DHT22;47278;49.732;7.690;2023-06-14T04:20:11;9.50;99.90
61412;DHT22;47278;49.732;7.690;2023-06-14T04:22:37;9.60;99.90
61412;DHT22;47278;49.732;7.690;2023-06-14T04:25:03;9.60;99.90
61412;DHT22;47278;49.732;7.690;2023-06-14T04:27:32;9.70;99.90
61412;DHT22;47278;49.732;7.690;2023-06-14T04:30:02;9.80;99.90
61412;DHT22;47278;49.732;7.690;2023-06-14T04:32:29;9.70;99.90
61412;DHT22;47278;49.732;7.690;2023-06-14T04:34:59;9.80;99.90
61412;DHT22;47278;49.732;7.690;2023-06-14T04:37:28;9.80;99.90
61412;DHT22;47278;49.732;7.690;2023-06-14T04:39:55;9.90;99.90
61412;DHT22;47278;49.732;7.690;2023-06-14T04:42:22;9.90;99.90
61412;DHT22;47278;49.732;7.690;2023-06-14T04:44:51;9.90;99.90
61412;DHT22;47278;49.732;7.690;2023-06-14T04:47:20;10.00;99.90
61412;DHT22;47278;49.732;7.690;2023-06-14T04:49:46;9.40;99.90
61412;DHT22;47278;49.732;7.690;2023-06-14T04:52:13;10.20;99.90
61412;DHT22;47278;49.732;7.690;2023-06-14T04:54:40;10.20;99.90
61412;DHT22;47278;49.732;7.690;2023-06-14T04:57:09;10.30;99.90
61412;DHT22;47278;49.732;7.690;2023-06-14T04:59:40;10.40;99.90
61412;DHT22;47278;49.732;7.690;2023-06-14T05:02:06;10.50;99.90
61412;DHT22;47278;49.732;7.690;2023-06-14T05:04:32;10.60;99.90
61412;DHT22;47278;49.732;7.690;2023-06-14T05:06:59;10.70;99.90
61412;DHT22;47278;49.732;7.690;2023-06-14T05:09:25;10.80;99.90
61412;DHT22;47278;49.732;7.690;2023-06-14T05:11:51;10.80;99.90
61412;DHT22;47278;49.732;7.690;2023-06-14T05:14:17;10.90;99.90
61412;DHT22;47278;49.732;7.690;2023-06-14T05:16:44;11.00;99.90
61412;DHT22;47278;49.732;7.690;2023-06-14T05:19:10;11.10;99.90
61412;DHT22;47278;49.732;7.690;2023-06-14T05:21:36;11.20;99.90
61412;DHT22;47278;49.732;7.690;2023-06-14T05:24:03;11.30;99.90
61412;DHT22;47278;49.732;7.690;2023-06-14T05:26:29;11.40;99.90
61412;DHT22;47278;49.732;7.690;2023-06-14T05:28:56;11.30;99.90
61412;DHT22;47278;49.732;7.690;2023-06-14T05:31:23;11.40;99.90
61412;DHT22;47278;49.732;7.690;2023-06-14T05:33:50;11.50;99.90
61412;DHT22;47278;49.732;7.690;2023-06-14T05:36:16;11.70;99.90
61412;DHT22;47278;49.732;7.690;2023-06-14T05:38:42;11.70;99.90
61412;DHT22;47278;49.732;7.690;2023-06-14T05:41:08;11.90;99.90
61412;DHT22;47278;49.732;7.690;2023-06-14T05:43:34;12.00;99.90
61412;DHT22;47278;49.732;7.690;2023-06-14T05:46:01;12.00;99.90
61412;DHT22;47278;49.732;7.690;2023-06-14T05:48:28;12.10;99.90
61412;DHT22;47278;49.732;7.690;2023-06-14T05:50:54;12.30;99.90
61412;DHT22;47278;49.732;7.690;2023-06-14T05:53:21;12.40;99.90
61412;DHT22;47278;49.732;7.690;2023-06-14T05:55:46;12.50;99.90
61412;DHT22;47278;49.732;7.690;2023-06-14T05:58:12;12.60;99.90
61412;DHT22;47278;49.732;7.690;2023-06-14T06:00:39;12.70;99.90
61412;DHT22;47278;49.732;7.690;2023-06-14T06:03:06;12.90;99.90
61412;DHT22;47278;49.732;7.690;2023-06-14T06:05:36;13.00;99.90
61412;DHT22;47278;49.732;7.690;2023-06-14T06:08:02;13.20;99.90
61412;DHT22;47278;49.732;7.690;2023-06-14T06:10:28;13.30;99.90
61412;DHT22;47278;49.732;7.690;2023-06-14T06:12:54;13.60;99.90
61412;DHT22;47278;49.732;7.690;2023-06-14T06:15:20;13.80;99.90
61412;DHT22;47278;49.732;7.690;2023-06-14T06:17:46;13.90;99.90
61412;DHT22;47278;49.732;7.690;2023-06-14T06:20:12;14.10;99.90
61412;DHT22;47278;49.732;7.690;2023-06-14T06:22:38;14.30;99.90
61412;DHT22;47278;49.732;7.690;2023-06-14T06:25:05;14.60;99.90
61412;DHT22;47278;49.732;7.690;2023-06-14T06:27:32;14.80;99.90
61412;DHT22;47278;49.732;7.690;2023-06-14T06:29:58;15.00;99.90
61412;DHT22;47278;49.732;7.690;2023-06-14T06:32:24;15.10;99.90
61412;DHT22;47278;49.732;7.690;2023-06-14T06:34:50;15.30;99.90
61412;DHT22;47278;49.732;7.690;2023-06-14T06:37:17;15.30;99.90
61412;DHT22;47278;49.732;7.690;2023-06-14T06:39:43;15.50;99.90
61412;DHT22;47278;49.732;7.690;2023-06-14T06:42:09;15.70;99.90
61412;DHT22;47278;49.732;7.690;2023-06-14T06:44:36;16.00;99.90
61412;DHT22;47278;49.732;7.690;2023-06-14T06:47:03;16.30;99.90
61412;DHT22;47278;49.732;7.690;2023-06-14T06:49:29;16.50;99.90
61412;DHT22;47278;49.732;7.690;2023-06-14T06:52:03;16.60;99.90
61412;DHT22;47278;49.732;7.690;2023-06-14T06:54:30;16.80;99.90
61412;DHT22;47278;49.732;7.690;2023-06-14T06:56:56;17.10;99.90
61412;DHT22;47278;49.732;7.690;2023-06-14T06:59:22;17.40;99.90
61412;DHT22;47278;49.732;7.690;2023-06-14T07:01:48;17.60;99.90
61412;DHT22;47278;49.732;7.690;2023-06-14T07:04:14;17.80;99.90
61412;DHT22;47278;49.732;7.690;2023-06-14T07:06:42;18.10;99.90
61412;DHT22;47278;49.732;7.690;2023-06-14T07:09:08;18.10;99.90
61412;DHT22;47278;49.732;7.690;2023-06-14T07:11:41;18.20;99.90
61412;DHT22;47278;49.732;7.690;2023-06-14T07:14:07;18.50;99.90
61412;DHT22;47278;49.732;7.690;2023-06-14T07:16:33;18.50;99.90
61412;DHT22;47278;49.732;7.690;2023-06-14T07:18:59;18.60;99.90
61412;DHT22;47278;49.732;7.690;2023-06-14T07:21:26;18.70;99.90
61412;DHT22;47278;49.732;7.690;2023-06-14T07:27:14;18.90;99.90
61412;DHT22;47278;49.732;7.690;2023-06-14T07:32:43;19.20;99.90
61412;DHT22;47278;49.732;7.690;2023-06-14T07:35:09;19.30;99.90
61412;DHT22;47278;49.732;7.690;2023-06-14T07:37:34;19.40;99.90
61412;DHT22;47278;49.732;7.690;2023-06-14T07:40:01;21.50;99.90
61412;DHT22;47278;49.732;7.690;2023-06-14T07:42:33;19.50;99.90
61412;DHT22;47278;49.732;7.690;2023-06-14T07:44:59;19.50;99.90
61412;DHT22;47278;49.732;7.690;2023-06-14T07:47:24;19.60;99.90
61412;DHT22;47278;49.732;7.690;2023-06-14T07:49:50;19.70;99.90
61412;DHT22;47278;49.732;7.690;2023-06-14T07:52:16;19.80;99.90
61412;DHT22;47278;49.732;7.690;2023-06-14T07:54:43;19.80;99.90
61412;DHT22;47278;49.732;7.690;2023-06-14T07:57:08;19.90;99.90
61412;DHT22;47278;49.732;7.690;2023-06-14T07:59:34;20.00;99.90
61412;DHT22;47278;49.732;7.690;2023-06-14T08:02:00;20.00;99.90
61412;DHT22;47278;49.732;7.690;2023-06-14T08:04:26;20.20;99.90
61412;DHT22;47278;49.732;7.690;2023-06-14T08:06:54;20.30;99.90
61412;DHT22;47278;49.732;7.690;2023-06-14T08:09:20;20.30;99.90
61412;DHT22;47278;49.732;7.690;2023-06-14T08:11:46;20.40;99.90
61412;DHT22;47278;49.732;7.690;2023-06-14T08:14:12;20.40;99.90
61412;DHT22;47278;49.732;7.690;2023-06-14T08:16:38;20.40;99.90
61412;DHT22;47278;49.732;7.690;2023-06-14T08:19:04;21.70;99.90
61412;DHT22;47278;49.732;7.690;2023-06-14T08:21:30;20.50;99.90
61412;DHT22;47278;49.732;7.690;2023-06-14T08:24:01;20.60;99.90
61412;DHT22;47278;49.732;7.690;2023-06-14T08:26:30;20.70;99.90
61412;DHT22;47278;49.732;7.690;2023-06-14T08:28:57;20.70;99.90
61412;DHT22;47278;49.732;7.690;2023-06-14T08:31:23;20.90;99.90
61412;DHT22;47278;49.732;7.690;2023-06-14T08:33:50;20.90;99.90
61412;DHT22;47278;49.732;7.690;2023-06-14T08:36:16;21.10;99.90
61412;DHT22;47278;49.732;7.690;2023-06-14T08:38:42;21.20;99.90
61412;DHT22;47278;49.732;7.690;2023-06-14T08:41:08;21.40;99.90
61412;DHT22;47278;49.732;7.690;2023-06-14T08:43:38;21.40;99.90
61412;DHT22;47278;49.732;7.690;2023-06-14T08:46:04;21.40;99.90
61412;DHT22;47278;49.732;7.690;2023-06-14T08:48:34;21.50;99.90
61412;DHT22;47278;49.732;7.690;2023-06-14T08:51:00;21.70;99.90
61412;DHT22;47278;49.732;7.690;2023-06-14T08:53:32;21.70;99.90
61412;DHT22;47278;49.732;7.690;2023-06-14T08:56:02;21.90;99.90
61412;DHT22;47278;49.732;7.690;2023-06-14T08:58:32;22.10;99.90
61412;DHT22;47278;49.732;7.690;2023-06-14T09:00:59;22.10;99.90
61412;DHT22;47278;49.732;7.690;2023-06-14T09:03:27;22.40;99.90
61412;DHT22;47278;49.732;7.690;2023-06-14T09:05:56;22.20;99.90
61412;DHT22;47278;49.732;7.690;2023-06-14T09:08:22;22.10;99.90
61412;DHT22;47278;49.732;7.690;2023-06-14T09:10:48;22.30;99.90
61412;DHT22;47278;49.732;7.690;2023-06-14T09:13:14;22.40;99.90
61412;DHT22;47278;49.732;7.690;2023-06-14T09:15:40;22.70;99.90
61412;DHT22;47278;49.732;7.690;2023-06-14T09:18:05;22.80;99.90
61412;DHT22;47278;49.732;7.690;2023-06-14T09:20:32;22.60;99.90
61412;DHT22;47278;49.732;7.690;2023-06-14T09:22:58;22.90;99.90
61412;DHT22;47278;49.732;7.690;2023-06-14T09:25:24;23.10;99.90
61412;DHT22;47278;49.732;7.690;2023-06-14T09:27:51;23.10;99.90
61412;DHT22;47278;49.732;7.690;2023-06-14T09:30:19;22.90;99.90
61412;DHT22;47278;49.732;7.690;2023-06-14T09:32:45;22.60;99.50
61412;DHT22;47278;49.732;7.690;2023-06-14T09:35:11;22.90;99.40
61412;DHT22;47278;49.732;7.690;2023-06-14T09:37:37;22.90;98.80
61412;DHT22;47278;49.732;7.690;2023-06-14T09:40:05;23.10;99.10
61412;DHT22;47278;49.732;7.690;2023-06-14T09:42:32;23.00;98.60
61412;DHT22;47278;49.732;7.690;2023-06-14T09:45:01;23.20;99.90
61412;DHT22;47278;49.732;7.690;2023-06-14T09:47:27;23.20;98.70
61412;DHT22;47278;49.732;7.690;2023-06-14T09:49:53;23.30;98.10
61412;DHT22;47278;49.732;7.690;2023-06-14T09:52:21;23.80;98.70
61412;DHT22;47278;49.732;7.690;2023-06-14T09:54:47;24.20;99.90
61412;DHT22;47278;49.732;7.690;2023-06-14T09:57:15;24.20;99.20
61412;DHT22;47278;49.732;7.690;2023-06-14T09:59:42;24.00;97.20
61412;DHT22;47278;49.732;7.690;2023-06-14T10:02:14;23.90;99.20
61412;DHT22;47278;49.732;7.690;2023-06-14T10:04:46;24.30;97.80
61412;DHT22;47278;49.732;7.690;2023-06-14T10:07:13;24.10;98.90
61412;DHT22;47278;49.732;7.690;2023-06-14T10:09:43;24.50;97.50
61412;DHT22;47278;49.732;7.690;2023-06-14T10:12:14;23.10;99.30
61412;DHT22;47278;49.732;7.690;2023-06-14T10:14:52;24.30;97.70
61412;DHT22;47278;49.732;7.690;2023-06-14T10:17:21;24.60;98.60
61412;DHT22;47278;49.732;7.690;2023-06-14T10:19:55;24.20;96.30
61412;DHT22;47278;49.732;7.690;2023-06-14T10:22:32;24.40;96.40
61412;DHT22;47278;49.732;7.690;2023-06-14T10:24:59;24.50;96.20
61412;DHT22;47278;49.732;7.690;2023-06-14T10:27:26;24.70;97.00
61412;DHT22;47278;49.732;7.690;2023-06-14T10:32:18;24.60;95.40
61412;DHT22;47278;49.732;7.690;2023-06-14T10:34:53;24.70;96.20
61412;DHT22;47278;49.732;7.690;2023-06-14T10:37:19;24.70;96.10
61412;DHT22;47278;49.732;7.690;2023-06-14T10:39:45;24.50;96.40
61412;DHT22;47278;49.732;7.690;2023-06-14T10:42:11;24.60;94.80
61412;DHT22;47278;49.732;7.690;2023-06-14T10:47:06;24.90;97.40
61412;DHT22;47278;49.732;7.690;2023-06-14T10:52:08;25.40;96.30
61412;DHT22;47278;49.732;7.690;2023-06-14T10:54:37;25.10;94.30
61412;DHT22;47278;49.732;7.690;2023-06-14T10:57:03;24.60;94.90
61412;DHT22;47278;49.732;7.690;2023-06-14T10:59:32;24.90;98.10
61412;DHT22;47278;49.732;7.690;2023-06-14T11:02:04;24.00;95.10
61412;DHT22;47278;49.732;7.690;2023-06-14T11:04:50;25.20;95.10
61412;DHT22;47278;49.732;7.690;2023-06-14T11:07:39;25.30;95.10
61412;DHT22;47278;49.732;7.690;2023-06-14T11:10:54;25.50;99.90
61412;DHT22;47278;49.732;7.690;2023-06-14T11:12:54;25.80;94.70
61412;DHT22;47278;49.732;7.690;2023-06-14T11:15:22;26.10;95.80
61412;DHT22;47278;49.732;7.690;2023-06-14T11:17:53;26.00;95.50
61412;DHT22;47278;49.732;7.690;2023-06-14T11:20:18;26.30;98.40
61412;DHT22;47278;49.732;7.690;2023-06-14T11:22:45;26.20;94.30
61412;DHT22;47278;49.732;7.690;2023-06-14T11:25:11;25.60;94.20
61412;DHT22;47278;49.732;7.690;2023-06-14T11:27:38;25.40;95.30
61412;DHT22;47278;49.732;7.690;2023-06-14T11:30:06;25.80;94.60
61412;DHT22;47278;49.732;7.690;2023-06-14T11:32:32;26.00;94.00
61412;DHT22;47278;49.732;7.690;2023-06-14T11:34:58;26.20;97.00
61412;DHT22;47278;49.732;7.690;2023-06-14T11:37:27;26.40;94.60
61412;DHT22;47278;49.732;7.690;2023-06-14T11:39:57;25.90;94.60
61412;DHT22;47278;49.732;7.690;2023-06-14T11:42:24;26.20;94.00
61412;DHT22;47278;49.732;7.690;2023-06-14T11:44:50;26.40;94.10
61412;DHT22;47278;49.732;7.690;2023-06-14T11:47:16;26.50;96.10
61412;DHT22;47278;49.732;7.690;2023-06-14T11:49:42;25.80;91.90
61412;DHT22;47278;49.732;7.690;2023-06-14T11:52:08;26.20;94.40
61412;DHT22;47278;49.732;7.690;2023-06-14T11:54:34;26.40;94.00
61412;DHT22;47278;49.732;7.690;2023-06-14T11:57:00;26.20;93.60
61412;DHT22;47278;49.732;7.690;2023-06-14T11:59:26;26.40;95.50
61412;DHT22;47278;49.732;7.690;2023-06-14T12:01:55;26.60;93.50
61412;DHT22;47278;49.732;7.690;2023-06-14T12:04:26;26.80;94.20
61412;DHT22;47278;49.732;7.690;2023-06-14T12:06:52;26.30;93.80
61412;DHT22;47278;49.732;7.690;2023-06-14T12:09:21;26.90;94.70
61412;DHT22;47278;49.732;7.690;2023-06-14T12:11:49;27.00;93.70
61412;DHT22;47278;49.732;7.690;2023-06-14T12:14:15;27.00;93.30
61412;DHT22;47278;49.732;7.690;2023-06-14T12:16:42;26.60;92.40
61412;DHT22;47278;49.732;7.690;2023-06-14T12:19:08;26.60;94.40
61412;DHT22;47278;49.732;7.690;2023-06-14T12:21:36;26.50;92.40
61412;DHT22;47278;49.732;7.690;2023-06-14T12:24:04;26.50;93.80
61412;DHT22;47278;49.732;7.690;2023-06-14T12:26:32;27.00;93.10
61412;DHT22;47278;49.732;7.690;2023-06-14T12:28:58;27.10;93.00
61412;DHT22;47278;49.732;7.690;2023-06-14T12:31:24;26.20;91.80
61412;DHT22;47278;49.732;7.690;2023-06-14T12:33:50;25.50;95.00
61412;DHT22;47278;49.732;7.690;2023-06-14T12:36:16;26.20;93.90
61412;DHT22;47278;49.732;7.690;2023-06-14T12:38:42;26.50;93.20
61412;DHT22;47278;49.732;7.690;2023-06-14T12:41:08;27.00;91.80
61412;DHT22;47278;49.732;7.690;2023-06-14T12:43:34;26.90;92.20
61412;DHT22;47278;49.732;7.690;2023-06-14T12:46:00;27.20;92.70
61412;DHT22;47278;49.732;7.690;2023-06-14T12:48:26;27.10;91.80
61412;DHT22;47278;49.732;7.690;2023-06-14T12:50:57;27.00;90.60
61412;DHT22;47278;49.732;7.690;2023-06-14T12:53:24;27.10;91.40
61412;DHT22;47278;49.732;7.690;2023-06-14T12:55:50;25.90;90.40
61412;DHT22;47278;49.732;7.690;2023-06-14T12:58:15;26.50;92.50
61412;DHT22;47278;49.732;7.690;2023-06-14T13:00:42;27.00;91.70
61412;DHT22;47278;49.732;7.690;2023-06-14T13:03:09;27.40;91.40
61412;DHT22;47278;49.732;7.690;2023-06-14T13:05:35;27.30;91.60
61412;DHT22;47278;49.732;7.690;2023-06-14T13:08:02;27.00;90.10
61412;DHT22;47278;49.732;7.690;2023-06-14T13:10:28;27.30;89.80
61412;DHT22;47278;49.732;7.690;2023-06-14T13:12:54;26.70;91.00
61412;DHT22;47278;49.732;7.690;2023-06-14T13:15:20;27.10;92.20
61412;DHT22;47278;49.732;7.690;2023-06-14T13:17:46;27.60;91.70
61412;DHT22;47278;49.732;7.690;2023-06-14T13:20:14;28.00;88.20
61412;DHT22;47278;49.732;7.690;2023-06-14T13:22:41;27.60;88.20
61412;DHT22;47278;49.732;7.690;2023-06-14T13:25:07;27.60;90.90
61412;DHT22;47278;49.732;7.690;2023-06-14T13:27:33;27.60;87.90
61412;DHT22;47278;49.732;7.690;2023-06-14T13:29:59;26.90;88.60
61412;DHT22;47278;49.732;7.690;2023-06-14T13:32:24;26.40;90.90
61412;DHT22;47278;49.732;7.690;2023-06-14T13:34:50;26.70;88.10
61412;DHT22;47278;49.732;7.690;2023-06-14T13:37:16;27.30;89.80
61412;DHT22;47278;49.732;7.690;2023-06-14T13:39:42;27.50;88.70
61412;DHT22;47278;49.732;7.690;2023-06-14T13:42:08;28.90;88.00
61412;DHT22;47278;49.732;7.690;2023-06-14T13:44:34;27.30;85.70
61412;DHT22;47278;49.732;7.690;2023-06-14T13:46:59;27.60;85.40
61412;DHT22;47278;49.732;7.690;2023-06-14T13:49:25;27.60;87.40
61412;DHT22;47278;49.732;7.690;2023-06-14T13:51:51;27.50;86.70
61412;DHT22;47278;49.732;7.690;2023-06-14T13:54:19;27.10;85.50
61412;DHT22;47278;49.732;7.690;2023-06-14T13:56:45;27.00;83.00
61412;DHT22;47278;49.732;7.690;2023-06-14T13:59:11;26.50;81.90
61412;DHT22;47278;49.732;7.690;2023-06-14T14:01:37;26.90;87.00
61412;DHT22;47278;49.732;7.690;2023-06-14T14:04:04;26.80;85.30
61412;DHT22;47278;49.732;7.690;2023-06-14T14:06:30;27.30;85.60
61412;DHT22;47278;49.732;7.690;2023-06-14T14:08:56;27.30;84.80
61412;DHT22;47278;49.732;7.690;2023-06-14T14:11:22;27.90;85.50
61412;DHT22;47278;49.732;7.690;2023-06-14T14:13:47;28.10;86.10
61412;DHT22;47278;49.732;7.690;2023-06-14T14:16:14;28.30;87.00
61412;DHT22;47278;49.732;7.690;2023-06-14T14:18:40;28.20;80.30
61412;DHT22;47278;49.732;7.690;2023-06-14T14:21:06;27.70;80.00
61412;DHT22;47278;49.732;7.690;2023-06-14T14:23:31;27.80;81.90
61412;DHT22;47278;49.732;7.690;2023-06-14T14:25:57;28.20;82.40
61412;DHT22;47278;49.732;7.690;2023-06-14T14:28:23;27.70;84.30
61412;DHT22;47278;49.732;7.690;2023-06-14T14:30:49;27.70;80.00
61412;DHT22;47278;49.732;7.690;2023-06-14T14:33:15;28.00;80.30
61412;DHT22;47278;49.732;7.690;2023-06-14T14:35:43;28.00;84.10
61412;DHT22;47278;49.732;7.690;2023-06-14T14:38:11;28.20;80.20
61412;DHT22;47278;49.732;7.690;2023-06-14T14:40:37;27.90;79.70
61412;DHT22;47278;49.732;7.690;2023-06-14T14:43:03;27.70;81.90
61412;DHT22;47278;49.732;7.690;2023-06-14T14:45:29;28.30;82.00
61412;DHT22;47278;49.732;7.690;2023-06-14T14:47:55;28.30;77.90
61412;DHT22;47278;49.732;7.690;2023-06-14T14:50:21;28.20;83.00
61412;DHT22;47278;49.732;7.690;2023-06-14T14:52:47;28.60;85.90
61412;DHT22;47278;49.732;7.690;2023-06-14T14:55:12;28.60;79.00
61412;DHT22;47278;49.732;7.690;2023-06-14T14:57:38;28.80;82.70
61412;DHT22;47278;49.732;7.690;2023-06-14T15:00:05;28.30;80.00
61412;DHT22;47278;49.732;7.690;2023-06-14T15:02:34;28.90;85.80
61412;DHT22;47278;49.732;7.690;2023-06-14T15:05:00;28.90;83.60
61412;DHT22;47278;49.732;7.690;2023-06-14T15:07:28;27.90;83.50
61412;DHT22;47278;49.732;7.690;2023-06-14T15:09:57;26.90;82.70
61412;DHT22;47278;49.732;7.690;2023-06-14T15:12:23;26.30;84.00
61412;DHT22;47278;49.732;7.690;2023-06-14T15:14:52;26.30;87.70
61412;DHT22;47278;49.732;7.690;2023-06-14T15:17:19;27.40;83.90
61412;DHT22;47278;49.732;7.690;2023-06-14T15:19:48;27.60;83.50
61412;DHT22;47278;49.732;7.690;2023-06-14T15:22:14;27.80;82.50
61412;DHT22;47278;49.732;7.690;2023-06-14T15:24:43;28.70;88.80
61412;DHT22;47278;49.732;7.690;2023-06-14T15:27:09;29.10;81.10
61412;DHT22;47278;49.732;7.690;2023-06-14T15:29:36;29.20;83.60
61412;DHT22;47278;49.732;7.690;2023-06-14T15:32:02;28.50;81.40
61412;DHT22;47278;49.732;7.690;2023-06-14T15:34:28;28.20;84.40
61412;DHT22;47278;49.732;7.690;2023-06-14T15:36:54;30.10;80.90
61412;DHT22;47278;49.732;7.690;2023-06-14T15:39:19;30.90;78.00
61412;DHT22;47278;49.732;7.690;2023-06-14T15:41:45;31.10;75.00
61412;DHT22;47278;49.732;7.690;2023-06-14T15:44:11;31.60;77.40
61412;DHT22;47278;49.732;7.690;2023-06-14T15:46:37;31.80;76.40